Minot Air Force Base
KMIB : now visible

Airfield :











YOU CAN JOIN US ON...

 
LOGIN :

Register | Disclaimer

   EN    FR    IT 

 









Legend :    VFR   Marginal VFR   IFR   Intensive IFR   Very Intensive IFR
Visi :
Ceiling :
>= 8 km
>= 3000ft
5 to 8 km
1000 to 3000 ft
1500m to 5 km
500 to 1000 ft
800 to 1500m
200 to 500 ft
< 800m
< 200 ft
Symbols :   Thunderstorms  Fog  Heavy snow  Heavy precipitations  Wind > 20 kt






- Airport Elevation : 1667 ft


KMIB - Minot Air Force Base

CURRENT METAR :
  • 291455Z 00000KT 4SM BR BKN002 OVC010 M05/M06 A3006 RMK AO2A SLP211 T10501058 52007 $

EXPIRED METARs :
  • 291404Z 00000KT 5SM BR BKN002 OVC009 M05/M06 A3004 RMK AO2A SLP202 $
  • 291357Z 06002KT 6SM BR BKN001 M05/M06 A3004 RMK AO2A SLP202 T10511059 $
  • 291306Z 01003KT 2 3/4SM BR OVC002 M05/M06 A3004 RMK AO2A SLP202 $
  • 291259Z 01003KT 3SM BR OVC002 M05/M06 A3004 RMK AO2A SLP202 T10491057 $
  • 291216Z 01004KT 4SM BR OVC002 M05/M06 A3003 RMK AO2A SLP199 $

TAF AMD TAF KMIB
Valid from the 29 at 12:00 until the 30 at 15:00 UTC


291220Z 2912/3015 VRB06KT 4800 BR OVC002 QNH3000INS
TEMPO 2912/2918 0800 FZFG
BECMG 2917/2918 VRB06KT 8000 BR OVC005 QNH3001INS
BECMG 2923/2924 24006KT 9000 BR OVC004 QNH2987INS TXM01/2921Z TNM04/2915Z



MET'MAP, your aeronautical weather chart ! - Copyright ORBIFLY December 2007 - Disclaimer

ORBIFLY MET'MAP TEAM :

Programming & Development : Alexandra Zaïnal
Concept & original design : Baudouin d'Aumeries
Assistance for programming : Marc-Olivier Méhu
Technical & hardware support : Manuel Goepfert

Contact : metmap@orbifly.com




SOURCES & CREDITS :

   NOAA       Earth
Advisory